Latest Weather Observations for Melbourne Airport

IDV60801

Issued at 2:05 pm EST Tuesday 29 July 2014 (issued every 30 minutes, with the page automatically refreshed every 10 minutes)

About weather observations | Map of weather stations | Latest weather observations for VIC | Other Formats
Station Details ID: 086282 Name: MELBOURNE AIRPORT Lat: -37.67 Lon: 144.83 Height: 113.4 m
Data from the previous 72 hours. | See also: Recent months at Melbourne Airport
Date/Time
EST
Temp
°C
App
Temp
°C
Dew
Point
Rel
Hum
%
Delta-T
°C
Wind Press
QNH
hPa
Press
MSL
hPa
Rain
since 9 am
mm
Dir
 
Spd
km/h
Gust
km/h
Spd
kts
Gust
kts
29/02:00pm 14.0 6.4 8.9 71 2.6 N 39 52 21 28 1008.1 1008.3 0.0
29/01:40pm 13.1 5.8 8.8 75 2.2 N 37 56 20 30 1008.5 - 0.0
29/01:30pm 13.4 4.7 8.4 72 2.5 N 44 56 24 30 1008.5 - 0.0
29/01:00pm 14.4 5.8 8.3 67 3.1 N 43 57 23 31 1008.5 1008.7 0.0
29/12:30pm 12.5 3.2 7.6 72 2.4 N 46 57 25 31 1009.1 - 0.0
29/12:00pm 14.5 5.7 7.2 61 3.6 N 43 57 23 31 1009.3 1009.4 0.0
29/11:30am 14.0 5.2 7.1 63 3.4 N 43 59 23 32 1009.4 - 0.0
29/11:00am 14.5 7.2 7.0 60 3.7 NNW 35 54 19 29 1010.1 1010.2 0.0
29/10:53am 14.6 7.3 7.3 61 3.6 NNW 35 54 19 29 1010.0 - 0.0
29/10:30am 13.8 6.4 6.6 62 3.5 N 35 52 19 28 1010.1 - 0.0
29/10:00am 11.6 1.6 6.1 69 2.6 N 48 63 26 34 1008.9 1009.1 0.0
29/09:30am 11.3 2.2 6.0 70 2.5 N 43 57 23 31 1010.0 - 0.0
29/09:00am 12.3 5.1 6.0 65 3.0 N 33 43 18 23 1010.6 1010.7 0.2
29/08:30am 11.2 3.2 5.9 70 2.5 N 37 46 20 25 1010.1 - 0.2
29/08:00am 10.8 2.4 5.6 70 2.4 N 39 50 21 27 1010.3 1010.4 0.2
29/07:30am 11.4 3.7 5.4 66 2.8 N 35 48 19 26 1009.9 - 0.2
29/07:00am 11.3 4.2 5.7 68 2.6 N 32 39 17 21 1010.0 1010.1 0.2
29/06:30am 11.3 4.6 5.7 68 2.6 N 30 39 16 21 1010.1 - 0.2
29/06:00am 11.2 5.4 6.1 71 2.4 N 26 39 14 21 1009.9 1010.0 0.2
29/05:30am 11.0 4.4 6.1 72 2.3 N 30 39 16 21 1009.9 - 0.2
29/05:00am 11.1 4.9 6.2 72 2.3 N 28 39 15 21 1009.8 1009.9 0.2
29/04:30am 11.6 5.4 6.1 69 2.6 NNW 28 39 15 21 1010.1 - 0.2
29/04:00am 11.6 4.7 6.3 70 2.5 N 32 46 17 25 1010.3 1010.4 0.2
29/03:30am 11.8 5.7 6.6 70 2.5 N 28 37 15 20 1009.8 - 0.2
29/03:00am 12.0 4.9 6.6 69 2.6 N 33 43 18 23 1009.8 1009.9 0.2
29/02:30am 12.6 6.0 6.1 64 3.1 N 30 43 16 23 1010.4 - 0.2
29/02:00am 12.0 5.5 6.6 69 2.6 NNW 30 43 16 23 1011.1 1011.3 0.2
29/01:30am 11.2 5.9 6.6 73 2.2 N 24 33 13 18 1011.4 - 0.2
29/01:00am 9.5 3.3 6.3 80 1.5 N 28 35 15 19 1011.7 1011.9 0.2
29/12:30am 9.4 2.8 6.2 80 1.5 N 30 35 16 19 1012.3 - 0.2
29/12:00am 9.3 2.8 6.3 81 1.4 N 30 33 16 18 1012.5 1012.7 0.2
 
Date/Time
EST
Temp
°C
App
Temp
°C
Dew
Point
Rel
Hum
%
Delta-T
°C
Wind Press
QNH
hPa
Press
MSL
hPa
Rain
since 9 am
mm
Dir
 
Spd
km/h
Gust
km/h
Spd
kts
Gust
kts
28/11:30pm 9.5 3.0 6.5 81 1.4 N 30 44 16 24 1012.6 - 0.2
28/11:00pm 10.5 4.0 6.5 76 1.9 N 30 35 16 19 1012.7 1012.9 0.2
28/10:30pm 10.7 4.2 6.5 75 2.0 N 30 39 16 21 1012.9 - 0.2
28/10:00pm 10.9 4.1 6.7 75 2.0 N 32 43 17 23 1012.9 1013.1 0.2
28/09:41pm 11.3 4.3 6.7 73 2.2 N 33 52 18 28 1013.0 - 0.2
28/09:30pm 11.2 4.4 6.8 74 2.1 N 32 41 17 22 1013.0 - 0.2
28/09:00pm 11.2 4.2 7.0 75 2.0 N 33 39 18 21 1013.1 1013.3 0.2
28/08:30pm 11.5 5.1 6.9 73 2.2 N 30 37 16 20 1013.0 - 0.2
28/08:00pm 11.3 4.5 6.9 74 2.1 N 32 37 17 20 1012.9 1013.1 0.2
28/07:30pm 12.0 4.3 7.3 73 2.3 N 37 48 20 26 1012.4 - 0.2
28/07:00pm 12.0 4.8 7.7 75 2.1 N 35 46 19 25 1012.4 1012.6 0.2
28/06:30pm 12.2 5.0 7.5 73 2.3 N 35 46 19 25 1012.4 - 0.2
28/06:00pm 12.3 5.5 7.1 70 2.5 N 32 37 17 20 1012.5 1012.7 0.2
28/05:30pm 13.1 6.6 6.4 64 3.2 N 30 41 16 22 1012.6 - 0.2
28/05:00pm 14.5 8.6 5.7 55 4.2 N 26 35 14 19 1012.9 1013.1 0.2
28/04:30pm 15.2 9.3 5.9 54 4.5 NNW 26 33 14 18 1012.9 - 0.2
28/04:00pm 15.5 8.8 5.8 52 4.7 N 30 39 16 21 1012.5 1012.7 0.2
28/03:30pm 15.8 8.6 5.9 51 4.8 N 33 46 18 25 1012.3 - 0.2
28/03:00pm 16.0 8.9 5.7 50 5.0 N 32 41 17 22 1012.5 1012.7 0.2
28/02:30pm 15.0 8.2 6.9 58 4.0 N 32 43 17 23 1012.7 - 0.2
28/02:00pm 15.2 7.8 6.6 56 4.2 N 35 43 19 23 1013.1 1013.3 0.2
28/01:30pm 14.9 7.4 6.2 56 4.2 N 35 46 19 25 1013.3 - 0.2
28/01:00pm 14.4 6.4 5.8 56 4.1 N 37 48 20 26 1013.9 1014.1 0.2
28/12:30pm 14.3 5.9 5.5 55 4.2 N 39 50 21 27 1014.2 - 0.2
28/12:00pm 14.2 6.6 5.6 56 4.1 N 35 46 19 25 1014.8 1015.0 0.2
28/11:30am 13.2 4.9 6.3 63 3.3 N 39 48 21 26 1015.1 - 0.2
28/11:00am 12.7 3.6 5.7 62 3.3 N 43 54 23 29 1015.3 1015.5 0.2
28/10:30am 11.8 2.6 5.6 66 2.9 N 43 54 23 29 1015.6 - 0.0
28/10:00am 10.6 0.8 5.1 69 2.5 N 46 59 25 32 1015.9 1016.1 0.0
28/09:30am 9.8 0.9 4.9 71 2.2 N 41 52 22 28 1016.2 - 0.0
28/09:00am 9.1 -1.5 4.9 75 1.9 N 50 59 27 32 1016.0 1016.2 0.0
28/08:30am 8.6 -1.7 4.8 77 1.7 N 48 59 26 32 1016.0 - 0.0
28/08:00am 7.9 -2.7 5.0 82 1.3 N 50 59 27 32 1016.3 1016.5 0.0
28/07:30am 7.7 -2.5 5.0 83 1.2 N 48 57 26 31 1016.2 - 0.0
28/07:00am 7.7 -2.5 5.0 83 1.2 N 48 59 26 32 1016.3 1016.5 0.0
28/06:30am 7.8 -0.8 4.9 82 1.3 N 39 52 21 28 1016.3 - 0.0
28/06:00am 8.5 1.6 4.4 75 1.8 N 30 35 16 19 1016.3 1016.5 0.0
28/05:30am 9.5 2.9 4.1 69 2.4 N 28 39 15 21 1016.5 - 0.0
28/05:00am 9.5 1.6 4.3 70 2.3 N 35 46 19 25 1016.3 1016.5 0.0
28/04:30am 9.0 0.8 5.0 76 1.8 N 37 48 20 26 1016.3 - 0.0
28/04:00am 8.3 1.2 5.7 84 1.2 N 32 39 17 21 1016.4 1016.6 0.0
28/03:30am 8.6 1.4 6.0 84 1.2 N 33 39 18 21 1016.8 - 0.0
28/03:00am 9.0 1.1 6.2 82 1.3 N 37 48 20 26 1017.1 1017.3 0.0
28/02:30am 8.9 0.7 6.5 85 1.1 N 39 50 21 27 1017.3 - 0.0
28/02:00am 8.8 -0.1 6.9 88 0.9 N 43 54 23 29 1017.7 1017.9 0.0
28/01:30am 9.1 0.6 7.0 87 1.0 N 41 54 22 29 1017.8 - 0.0
28/01:00am 9.3 1.2 7.2 87 1.0 N 39 52 21 28 1018.1 1018.3 0.0
28/12:30am 9.5 2.2 7.2 85 1.1 N 35 46 19 25 1018.6 - 0.0
28/12:00am 9.6 1.9 7.3 85 1.1 N 37 46 20 25 1019.1 1019.3 0.0
 
Date/Time
EST
Temp
°C
App
Temp
°C
Dew
Point
Rel
Hum
%
Delta-T
°C
Wind Press
QNH
hPa
Press
MSL
hPa
Rain
since 9 am
mm
Dir
 
Spd
km/h
Gust
km/h
Spd
kts
Gust
kts
27/11:30pm 9.9 2.6 7.4 84 1.2 N 35 50 19 27 1019.5 - 0.0
27/11:09pm 9.9 3.3 7.6 85 1.1 N 32 57 17 31 1019.7 - 0.0
27/11:00pm 9.8 3.6 7.7 87 1.0 N 30 41 16 22 1019.9 1020.1 0.0
27/10:30pm 10.1 5.0 7.8 86 1.1 N 24 32 13 17 1020.4 - 0.0
27/10:00pm 10.5 5.4 7.6 82 1.4 N 24 30 13 16 1020.5 1020.7 0.0
27/09:30pm 10.5 4.9 7.1 79 1.6 N 26 33 14 18 1020.5 - 0.0
27/09:00pm 10.1 5.6 6.9 80 1.5 N 20 28 11 15 1020.8 1021.0 0.0
27/08:30pm 10.5 6.0 7.1 79 1.6 N 20 28 11 15 1020.9 - 0.0
27/08:00pm 10.0 6.5 7.3 83 1.3 N 15 20 8 11 1021.0 1021.2 0.0
27/07:30pm 10.8 7.8 7.7 81 1.5 N 13 17 7 9 1021.1 - 0.0
27/07:00pm 11.3 6.9 7.4 77 1.9 N 20 28 11 15 1020.7 1020.9 0.0
27/06:30pm 12.1 7.2 7.1 71 2.4 N 22 28 12 15 1020.4 - 0.0
27/06:00pm 11.7 7.4 6.9 72 2.3 N 19 30 10 16 1020.3 1020.5 0.0
27/05:30pm 12.6 6.5 6.5 66 2.9 N 28 39 15 21 1020.6 - 0.0
27/05:00pm 13.8 10.0 5.8 58 3.8 NNW 15 24 8 13 1020.9 1021.1 0.0
27/04:30pm 13.9 9.7 5.7 57 3.9 NNW 17 22 9 12 1020.9 - 0.0
27/04:00pm 14.3 9.4 5.2 54 4.3 NW 20 30 11 16 1021.3 1021.5 0.0
27/03:30pm 14.5 9.7 5.4 54 4.3 WNW 20 28 11 15 1020.9 - 0.0
27/03:00pm 14.8 10.7 4.5 50 4.8 NW 15 22 8 12 1020.7 1020.9 0.0
27/02:30pm 15.2 9.4 4.5 49 5.0 NW 24 39 13 21 1020.5 - 0.0
27/02:00pm 15.4 8.8 6.1 54 4.5 N 30 37 16 20 1020.4 1020.6 0.0
27/01:30pm 15.2 9.0 6.1 54 4.4 N 28 35 15 19 1020.8 - 0.0
27/01:00pm 14.7 9.4 5.2 53 4.5 NNW 22 33 12 18 1021.6 1021.8 0.0
27/12:30pm 14.7 8.0 5.4 53 4.4 NW 30 44 16 24 1022.1 - 0.0
27/12:00pm 14.4 8.4 5.3 54 4.3 NW 26 35 14 19 1022.9 1023.1 0.0
27/11:30am 13.7 8.3 7.8 67 2.9 N 26 33 14 18 1023.3 - 0.0
27/11:00am 13.2 7.3 7.5 68 2.8 N 28 35 15 19 1023.8 1024.0 0.0
27/10:30am 12.5 6.9 7.1 69 2.6 N 26 33 14 18 1024.4 - 0.0
27/10:00am 11.4 7.0 7.2 75 2.0 N 20 28 11 15 1024.9 1025.1 0.0
27/09:30am 9.9 4.8 6.2 78 1.7 N 22 30 12 16 1025.1 - 0.0
27/09:00am 9.4 4.8 5.7 78 1.7 NNW 19 22 10 12 1025.1 1025.4 0.4
27/08:30am 7.8 2.2 5.3 84 1.1 N 24 28 13 15 1024.8 - 0.4
27/08:00am 7.5 1.0 4.5 81 1.3 N 28 30 15 16 1024.9 1025.1 0.4
27/07:30am 6.3 0.0 4.0 85 1.0 N 26 30 14 16 1024.7 - 0.4
27/07:00am 6.6 1.1 3.8 82 1.2 N 22 26 12 14 1024.5 1024.7 0.4
27/06:30am 6.1 0.9 3.5 83 1.1 N 20 24 11 13 1024.4 - 0.4
27/06:00am 5.5 -0.5 3.3 86 0.9 N 24 28 13 15 1024.3 1024.5 0.4
27/05:30am 6.6 0.7 3.8 82 1.2 N 24 30 13 16 1024.5 - 0.4
27/05:00am 6.5 1.6 4.2 85 1.0 N 19 24 10 13 1024.5 1024.7 0.4
27/04:30am 6.8 1.3 4.2 83 1.1 N 22 26 12 14 1024.5 - 0.4
27/04:00am 7.1 2.2 4.3 82 1.2 N 19 24 10 13 1024.7 1024.9 0.4
27/03:30am 6.5 2.0 4.2 85 1.0 N 17 19 9 10 1024.9 - 0.4
27/03:00am 7.1 2.7 4.8 85 1.0 N 17 19 9 10 1025.0 1025.3 0.4
27/02:30am 7.5 2.8 5.2 85 1.0 N 19 22 10 12 1025.1 - 0.4
27/02:00am 7.8 4.0 5.6 86 1.0 N 15 19 8 10 1025.0 1025.3 0.4
27/01:30am 6.9 3.4 5.6 91 0.6 N 13 13 7 7 1025.1 - 0.4
27/01:00am 7.5 3.8 6.2 91 0.6 N 15 17 8 9 1025.3 1025.6 0.4
27/12:30am 9.2 6.3 6.4 83 1.3 NW 11 13 6 7 1025.5 - 0.4
27/12:00am 8.5 6.0 6.6 88 0.9 NNW 9 11 5 6 1025.6 1025.9 0.4
 
Date/Time
EST
Temp
°C
App
Temp
°C
Dew
Point
Rel
Hum
%
Delta-T
°C
Wind Press
QNH
hPa
Press
MSL
hPa
Rain
since 9 am
mm
Dir
 
Spd
km/h
Gust
km/h
Spd
kts
Gust
kts
26/11:30pm 9.5 7.1 7.2 85 1.1 WNW 9 11 5 6 1025.7 - 0.4
26/11:00pm 9.6 7.0 7.9 89 0.8 WNW 11 13 6 7 1026.0 1026.3 0.4
26/10:30pm 10.1 7.9 8.0 87 1.0 W 9 15 5 8 1025.9 - 0.4
26/10:00pm 11.0 8.9 8.3 83 1.3 W 9 11 5 6 1025.9 1026.2 0.4
26/09:30pm 11.3 9.3 8.5 83 1.4 WSW 9 11 5 6 1025.8 - 0.4
26/09:00pm 10.9 9.3 8.9 87 1.0 W 7 9 4 5 1025.6 1025.9 0.4
26/08:30pm 11.3 9.4 8.9 85 1.2 WSW 9 11 5 6 1025.3 - 0.4
26/08:00pm 11.6 8.5 9.0 84 1.3 W 15 19 8 10 1025.2 1025.5 0.4
26/07:30pm 11.7 9.3 8.7 82 1.5 W 11 15 6 8 1025.1 - 0.4
26/07:00pm 11.5 9.5 8.7 83 1.4 WSW 9 13 5 7 1024.9 1025.1 0.4
26/06:30pm 11.7 9.3 8.7 82 1.5 WSW 11 11 6 6 1024.6 - 0.4
26/06:00pm 12.2 9.5 8.8 80 1.7 WSW 13 19 7 10 1024.4 1024.6 0.2
26/05:30pm 11.7 9.7 10.1 90 0.8 SSW 11 17 6 9 1024.1 - 0.2
26/05:00pm 13.0 9.0 8.2 72 2.4 WSW 19 26 10 14 1023.8 1024.0 0.2
26/04:30pm 13.6 7.7 7.3 65 3.1 W 28 33 15 18 1023.5 - 0.2
26/04:00pm 13.8 9.1 7.7 66 3.0 W 22 30 12 16 1023.2 1023.4 0.2
26/03:30pm 13.9 10.7 8.3 69 2.8 W 15 20 8 11 1023.1 - 0.2
26/03:00pm 14.0 10.3 8.0 67 3.0 WSW 17 22 9 12 1022.9 1023.1 0.2
26/02:30pm 13.9 9.5 7.4 65 3.2 WSW 20 30 11 16 1022.6 - 0.2

Other Formats:

Comma delimited format used in spreadsheet applications
http://www.bom.gov.au/fwo/IDV60801/IDV60801.94866.axf

JavaScript Object Notation format (JSON) in row-major order
http://www.bom.gov.au/fwo/IDV60801/IDV60801.94866.json